Time;durP1;ratioP1;P1;durP2;ratioP2;P2;SDS_P1;SDS_P2;PMS_P1;PMS_P2;Temp;Humidity;BMP_temperature;BMP_pressure;BME280_temperature;BME280_humidity;BME280_pressure;Samples;Min_cycle;Max_cycle;Signal;HPM_P1;HPM_P2
2020/11/22 00:00:34;;;;;;;97.1;59.7;;;;;;;-3.17;78.37109;100015.5;;;;
2020/11/22 00:10:31;;;;;;;90.9;61.3;;;;;;;-3.36;78.79492;100005.5;;;;
2020/11/22 00:20:28;;;;;;;82.6;61.3;;;;;;;-3.67;80.56836;100011;;;;
2020/11/22 00:30:25;;;;;;;83.3;46.7;;;;;;;-3.88;79.63379;100016.1;;;;
2020/11/22 00:40:23;;;;;;;44.7;30.3;;;;;;;-3.59;76.19824;100010.9;;;;
2020/11/22 00:50:20;;;;;;;46.6;26.4;;;;;;;-3.13;73.08984;100004.4;;;;
2020/11/22 01:00:17;;;;;;;39.5;24.7;;;;;;;-2.76;73.02148;100008.7;;;;
2020/11/22 01:10:14;;;;;;;46.2;29.9;;;;;;;-2.5;73.6582;99991.52;;;;
2020/11/22 01:20:12;;;;;;;54.7;34.8;;;;;;;-2.36;74.25098;99982.71;;;;
2020/11/22 01:30:09;;;;;;;58.1;36.1;;;;;;;-2.34;74.86914;99973.59;;;;
2020/11/22 01:40:06;;;;;;;53.8;35.3;;;;;;;-2.28;75.28418;99974.64;;;;
2020/11/22 01:50:03;;;;;;;45.9;32.8;;;;;;;-2.17;74.58301;99959.09;;;;
2020/11/22 02:00:01;;;;;;;41.3;25;;;;;;;-2.28;74.32129;99962.25;;;;
2020/11/22 02:09:58;;;;;;;45.2;28.4;;;;;;;-2.32;73.89844;99958.36;;;;
2020/11/22 02:19:55;;;;;;;40;28.1;;;;;;;-2.44;73.62402;99935.32;;;;
2020/11/22 02:29:53;;;;;;;42;23.8;;;;;;;-2.29;72.18262;99939.49;;;;
2020/11/22 02:39:52;;;;;;;33.7;21.1;;;;;;;-2.39;72.39453;99920.53;;;;
2020/11/22 02:49:47;;;;;;;37.2;20.2;;;;;;;-2.54;72.85059;99906.63;;;;
2020/11/22 02:59:44;;;;;;;26.1;20.5;;;;;;;-2.31;71.18066;99917.76;;;;
2020/11/22 03:09:42;;;;;;;27.2;19.5;;;;;;;-2.15;69.92383;99906.08;;;;
2020/11/22 03:19:39;;;;;;;34;25.1;;;;;;;-1.96;68.23047;99886.09;;;;
2020/11/22 03:29:36;;;;;;;36.8;19.5;;;;;;;-2.11;68.5498;99876.45;;;;
2020/11/22 03:39:34;;;;;;;28.8;16.2;;;;;;;-2.16;67.86035;99878.88;;;;
2020/11/22 03:49:31;;;;;;;23.6;17.6;;;;;;;-2.18;67.48242;99875.59;;;;
2020/11/22 03:59:28;;;;;;;25.5;13.9;;;;;;;-2.31;68.02148;99877.34;;;;
2020/11/22 04:09:26;;;;;;;23.5;17;;;;;;;-2.3;67.70605;99877.16;;;;
2020/11/22 04:19:23;;;;;;;22.4;14.8;;;;;;;-2.44;67.7373;99872.8;;;;
2020/11/22 04:29:20;;;;;;;21.3;14.5;;;;;;;-2.55;68.36816;99868.03;;;;
2020/11/22 04:39:17;;;;;;;25;14.5;;;;;;;-2.82;68.93652;99855.64;;;;
2020/11/22 04:49:15;;;;;;;21.7;12.6;;;;;;;-2.97;68.60547;99868.08;;;;
2020/11/22 04:59:12;;;;;;;21;12.3;;;;;;;-3.17;68.89258;99868.72;;;;
2020/11/22 05:09:09;;;;;;;23.9;15.7;;;;;;;-3.29;69.41895;99874.64;;;;
2020/11/22 05:19:06;;;;;;;17.4;12.7;;;;;;;-3.43;69.73535;99878.96;;;;
2020/11/22 05:29:06;;;;;;;27.9;11.2;;;;;;;-3.3;69.75586;99870.41;;;;
2020/11/22 05:39:00;;;;;;;16;9.9;;;;;;;-3.19;70.45508;99870.7;;;;
2020/11/22 05:48:58;;;;;;;14.7;10;;;;;;;-3.07;70.43066;99853.39;;;;
2020/11/22 05:58:55;;;;;;;15.8;8.6;;;;;;;-3.05;70.44434;99853.19;;;;
2020/11/22 06:08:52;;;;;;;19.6;9.2;;;;;;;-2.87;69.9248;99844.83;;;;
2020/11/22 06:18:53;;;;;;;18;9.3;;;;;;;-2.85;70.28027;99833.11;;;;
2020/11/22 06:28:46;;;;;;;15.1;10.7;;;;;;;-2.66;71.07813;99826.34;;;;
2020/11/22 06:38:44;;;;;;;18;11.6;;;;;;;-2.55;71.39355;99823.99;;;;
2020/11/22 06:48:41;;;;;;;14.4;9.3;;;;;;;-2.29;70.73535;99833.89;;;;
2020/11/22 06:58:38;;;;;;;15.9;11.4;;;;;;;-2.13;70.72949;99825.67;;;;
2020/11/22 07:08:35;;;;;;;16.2;10.2;;;;;;;-1.82;70.30762;99805.89;;;;
2020/11/22 07:18:33;;;;;;;13.6;10.5;;;;;;;-1.62;70.28516;99814.69;;;;
2020/11/22 07:28:30;;;;;;;13.5;8.8;;;;;;;-1.4;69.91699;99816.19;;;;
2020/11/22 07:38:27;;;;;;;20.8;12.6;;;;;;;-1.17;70.00879;99810.52;;;;
2020/11/22 07:48:25;;;;;;;18.6;11.1;;;;;;;-0.95;69.49414;99803.22;;;;
2020/11/22 07:58:22;;;;;;;16.3;12.6;;;;;;;-0.74;68.70313;99774.72;;;;
2020/11/22 08:08:19;;;;;;;26.1;17.8;;;;;;;-0.45;68.72852;99784.02;;;;
2020/11/22 08:18:17;;;;;;;21.6;14.7;;;;;;;-0.23;67.42871;99758.09;;;;
2020/11/22 08:28:15;;;;;;;19.4;13.2;;;;;;;-0.02;66.68848;99752.52;;;;
2020/11/22 08:38:13;;;;;;;20.9;17.2;;;;;;;0.33;66.14746;99748.47;;;;
2020/11/22 08:48:09;;;;;;;31.9;20.6;;;;;;;0.73;65.20313;99740.27;;;;
2020/11/22 08:58:07;;;;;;;28.2;20.9;;;;;;;1.07;63.73633;99741.62;;;;
2020/11/22 09:08:05;;;;;;;30.5;22.6;;;;;;;1.51;63.30566;99723.61;;;;
2020/11/22 09:18:02;;;;;;;40.8;22.8;;;;;;;1.99;61.08789;99705.05;;;;
2020/11/22 09:28:00;;;;;;;28.1;21.3;;;;;;;2.36;57.90234;99681.81;;;;
2020/11/22 09:37:58;;;;;;;25;18.6;;;;;;;2.82;57.33008;99667.78;;;;
2020/11/22 09:47:56;;;;;;;21.4;16.3;;;;;;;3.35;56.48535;99672.17;;;;
2020/11/22 09:57:53;;;;;;;40.6;19.2;;;;;;;3.92;54.3916;99657.87;;;;
2020/11/22 10:07:53;;;;;;;28.9;23.4;;;;;;;4.18;55.53125;99650.34;;;;
2020/11/22 10:17:49;;;;;;;25.9;19.7;;;;;;;4.33;54.96973;99647.95;;;;
2020/11/22 10:27:47;;;;;;;29.2;22.6;;;;;;;4.28;55.16406;99642.52;;;;
2020/11/22 10:37:48;;;;;;;21.9;17.5;;;;;;;4.62;53.74023;99625.47;;;;
2020/11/22 10:47:43;;;;;;;24.3;19;;;;;;;4.94;51.69336;99606.98;;;;
2020/11/22 10:57:41;;;;;;;20.8;17.1;;;;;;;5.08;49.4541;99610.93;;;;
2020/11/22 11:07:39;;;;;;;24.9;19.3;;;;;;;5.45;49.9248;99587.07;;;;
2020/11/22 11:17:38;;;;;;;27;20.1;;;;;;;5.71;50.70801;99575.63;;;;
2020/11/22 11:27:36;;;;;;;24.3;17.6;;;;;;;6.31;47.19629;99561.23;;;;
2020/11/22 11:37:34;;;;;;;24;15.7;;;;;;;6.9;44.94629;99560.04;;;;
2020/11/22 11:47:32;;;;;;;32.2;18.7;;;;;;;7.56;42.74121;99530.81;;;;
2020/11/22 11:57:31;;;;;;;25.5;17.9;;;;;;;7.87;39.15723;99529;;;;
2020/11/22 12:07:29;;;;;;;10.1;5.3;;;;;;;8.15;31.62793;99516.94;;;;
2020/11/22 12:17:28;;;;;;;8.2;4.4;;;;;;;8.48;27.49707;99498.4;;;;
2020/11/22 12:27:26;;;;;;;10.3;3.7;;;;;;;8.45;27.47266;99495.45;;;;
2020/11/22 12:37:25;;;;;;;9.3;3.8;;;;;;;8.73;28.40137;99488.67;;;;
2020/11/22 12:47:25;;;;;;;9.4;5;;;;;;;8.8;28.29297;99484.63;;;;
2020/11/22 12:57:22;;;;;;;8.4;4.9;;;;;;;8.85;27.33789;99463.09;;;;
2020/11/22 13:07:20;;;;;;;6.9;3.8;;;;;;;8.86;27.30469;99464.7;;;;
2020/11/22 13:17:19;;;;;;;7.6;4.4;;;;;;;8.79;28.17871;99460.7;;;;
2020/11/22 13:27:19;;;;;;;9.4;7.7;;;;;;;8.53;27.93359;99479.59;;;;
2020/11/22 13:37:16;;;;;;;21;11;;;;;;;8.14;28.75;99473.17;;;;
2020/11/22 13:47:14;;;;;;;20.5;12.9;;;;;;;7.73;28.87109;99472.36;;;;
2020/11/22 13:57:13;;;;;;;28.6;14.6;;;;;;;7.45;28.33008;99475.53;;;;
2020/11/22 14:07:11;;;;;;;12.7;8.4;;;;;;;7.21;28.2002;99488.61;;;;
2020/11/22 14:17:10;;;;;;;16;9.8;;;;;;;6.96;28.81836;99485.83;;;;
2020/11/22 14:27:08;;;;;;;26;17;;;;;;;6.69;28.83594;99477.94;;;;
2020/11/22 14:37:06;;;;;;;24.8;12.2;;;;;;;6.46;28.35547;99491.7;;;;
2020/11/22 14:47:05;;;;;;;19.8;12.8;;;;;;;6.33;28.98047;99502.88;;;;
2020/11/22 14:57:03;;;;;;;16.8;9.5;;;;;;;6.13;29.60156;99519.59;;;;
2020/11/22 15:07:02;;;;;;;21.2;14.1;;;;;;;6;29.68359;99526.16;;;;
2020/11/22 15:16:59;;;;;;;22;14;;;;;;;5.65;32.80176;99533.84;;;;
2020/11/22 15:26:58;;;;;;;31.8;20.9;;;;;;;5.29;34.87402;99546;;;;
2020/11/22 15:36:56;;;;;;;28.1;16.5;;;;;;;5.21;35.2959;99550.96;;;;
2020/11/22 15:46:54;;;;;;;15.9;12.2;;;;;;;5.24;35.03906;99558.51;;;;
2020/11/22 15:56:53;;;;;;;15.8;10.4;;;;;;;5.2;34.95703;99574.23;;;;
2020/11/22 16:06:50;;;;;;;18.8;12.5;;;;;;;5.06;35.08203;99573.79;;;;
2020/11/22 16:16:48;;;;;;;19.6;13.8;;;;;;;4.96;35.85059;99578.97;;;;
2020/11/22 16:26:46;;;;;;;22.9;16.9;;;;;;;4.92;36.29883;99577.88;;;;
2020/11/22 16:36:44;;;;;;;29.6;18.2;;;;;;;4.91;37.37891;99586.93;;;;
2020/11/22 16:46:43;;;;;;;40.6;31;;;;;;;4.84;38.17188;99590.82;;;;
2020/11/22 16:56:41;;;;;;;42.7;34.6;;;;;;;4.77;39.22461;99580.31;;;;
2020/11/22 17:06:39;;;;;;;50.9;35.9;;;;;;;4.74;38.49023;99580;;;;
2020/11/22 17:16:37;;;;;;;71.5;46;;;;;;;4.68;38.86816;99587.14;;;;
2020/11/22 17:26:35;;;;;;;52.3;34.6;;;;;;;4.59;39.41113;99577.91;;;;
2020/11/22 17:36:33;;;;;;;33.5;26.1;;;;;;;4.52;40.0332;99571.92;;;;
2020/11/22 17:46:31;;;;;;;51.2;40.3;;;;;;;4.47;40.63672;99585.2;;;;
2020/11/22 17:56:29;;;;;;;47.8;34.9;;;;;;;4.39;41.14648;99588.27;;;;
2020/11/22 18:06:27;;;;;;;57;36.7;;;;;;;4.43;40.18359;99589.41;;;;
2020/11/22 18:16:25;;;;;;;45;32.8;;;;;;;4.42;40.35156;99593.93;;;;
2020/11/22 18:26:23;;;;;;;64;45;;;;;;;4.36;42.00781;99602.1;;;;
2020/11/22 18:36:22;;;;;;;35.5;24;;;;;;;4.19;41.05957;99614.62;;;;
2020/11/22 18:46:19;;;;;;;35.6;26.6;;;;;;;4.04;41.85352;99615.16;;;;
2020/11/22 18:56:17;;;;;;;30.2;22;;;;;;;4.01;43.17578;99610.3;;;;
2020/11/22 19:06:17;;;;;;;32.1;25.8;;;;;;;4.14;42.9082;99619.85;;;;
2020/11/22 19:16:13;;;;;;;36.9;25.7;;;;;;;4.17;42.7207;99614.84;;;;
2020/11/22 19:26:11;;;;;;;60.4;29.8;;;;;;;4.19;43.55273;99627.95;;;;
2020/11/22 19:36:09;;;;;;;50.7;32.9;;;;;;;4.14;44.0752;99606.52;;;;
2020/11/22 19:46:07;;;;;;;39.7;30.6;;;;;;;4.08;43.90137;99581.63;;;;
2020/11/22 19:56:05;;;;;;;31.2;23.3;;;;;;;3.97;46.36914;99572.63;;;;
2020/11/22 20:06:05;;;;;;;28;19.5;;;;;;;4.1;43.0498;99584.84;;;;
2020/11/22 20:16:01;;;;;;;40.7;26.1;;;;;;;4.2;41.93652;99606.36;;;;
2020/11/22 20:26:00;;;;;;;35.7;22.2;;;;;;;4.23;42.25391;99607.76;;;;
2020/11/22 20:35:57;;;;;;;51;36.2;;;;;;;4.28;42.76465;99613.98;;;;
2020/11/22 20:45:55;;;;;;;42.9;33.3;;;;;;;4.27;43.33691;99606.23;;;;
2020/11/22 20:55:54;;;;;;;37.5;27;;;;;;;4.28;42.66406;99613.98;;;;
2020/11/22 21:05:54;;;;;;;37;27.3;;;;;;;4.3;43.39551;99624.42;;;;
2020/11/22 21:15:49;;;;;;;39.9;29.2;;;;;;;4.25;44.09863;99603.79;;;;
2020/11/22 21:25:47;;;;;;;38.4;27.2;;;;;;;4.21;45.5752;99607.98;;;;
2020/11/22 21:35:45;;;;;;;28.5;22.5;;;;;;;4.13;45.82422;99594.25;;;;
2020/11/22 21:45:43;;;;;;;26.2;18;;;;;;;4.11;45.16016;99596.33;;;;
2020/11/22 21:55:42;;;;;;;31.8;21.1;;;;;;;3.99;47.87305;99586.52;;;;
2020/11/22 22:05:40;;;;;;;31.1;21.7;;;;;;;3.93;47.38477;99586.68;;;;
2020/11/22 22:15:38;;;;;;;31.1;21.6;;;;;;;3.98;47.24414;99598.27;;;;
2020/11/22 22:25:38;;;;;;;42.1;27.1;;;;;;;4.02;46.62012;99606.59;;;;
2020/11/22 22:35:34;;;;;;;30.8;23.3;;;;;;;4;47.49219;99595.34;;;;
2020/11/22 22:45:32;;;;;;;31.4;24.1;;;;;;;4;48.04102;99582;;;;
2020/11/22 22:55:30;;;;;;;27.5;22.8;;;;;;;3.95;47.54395;99580.08;;;;
2020/11/22 23:05:28;;;;;;;28.2;21.1;;;;;;;3.97;47.91602;99569.97;;;;
2020/11/22 23:15:26;;;;;;;36.7;23.6;;;;;;;4;47.9082;99585.48;;;;
2020/11/22 23:25:24;;;;;;;37;23.9;;;;;;;4.01;48.49121;99578.3;;;;
2020/11/22 23:35:22;;;;;;;32.9;22.5;;;;;;;3.98;49.78809;99563.59;;;;
2020/11/22 23:45:20;;;;;;;30;21.6;;;;;;;4.02;49.03027;99567.41;;;;
2020/11/22 23:55:18;;;;;;;33;24.5;;;;;;;4.02;50.03711;99577.26;;;;
